Terminal Aerodrome Forecast
Issued by NWS Salt Lake City, UT

Home | Current Version | Previous Version | Text Only | Print | Product List | Glossary On
Versions: 1 2 3 4 5 6 7 8 9 10 11 12 13 14 15 16 17 18 19 20 21 22 23 24 25 26 27 28 29 30 31 32 33 34 35 36 37 38 39 40 41 42 43 44 45 46 47 48 49 50
000
FTUS45 KSLC 030541
TAFSLC
TAF
KSLC 030541Z 0306/0412 03006KT P6SM VCSH SCT010 BKN060
      TEMPO 0306/0308 BKN025
     FM031400 33008KT 2SM -SN SCT004 BKN015
     FM031500 32011G18KT 3/4SM -SN BR VV004
     FM031800 33011KT 4SM -SHSN BR BKN015 OVC035
     FM032000 33010KT P6SM VCSH BKN025 BKN050
     FM040400 35007KT P6SM SCT040 SCT060=

USA.gov is the U.S. government's official web portal to all federal, state and local government web resources and services.